createdAt,value
2017-07-31T00:02:22.230Z,80.29
2017-07-31T00:04:50.554Z,80.10
2017-07-31T00:07:18.879Z,80.08
2017-07-31T00:09:47.232Z,81.37
2017-07-31T00:12:15.574Z,80.70
2017-07-31T00:14:44.181Z,81.10
2017-07-31T00:17:12.500Z,81.75
2017-07-31T00:19:40.816Z,82.13
2017-07-31T00:22:09.168Z,82.82
2017-07-31T00:24:37.507Z,82.25
2017-07-31T00:27:06.128Z,82.67
2017-07-31T00:29:34.457Z,81.95
2017-07-31T00:32:02.857Z,81.27
2017-07-31T00:34:31.214Z,81.58
2017-07-31T00:36:59.555Z,81.61
2017-07-31T00:39:28.222Z,81.97
2017-07-31T00:41:56.559Z,81.83
2017-07-31T00:44:24.916Z,82.01
2017-07-31T00:46:53.282Z,81.69
2017-07-31T00:49:21.619Z,82.86
2017-07-31T00:51:50.755Z,82.93
2017-07-31T00:54:19.522Z,81.89
2017-07-31T00:56:48.590Z,82.12
2017-07-31T00:59:17.526Z,82.07
2017-07-31T01:01:46.898Z,82.09
2017-07-31T01:04:15.516Z,81.95
2017-07-31T01:06:44.296Z,82.89
2017-07-31T01:09:13.384Z,82.90
2017-07-31T01:11:41.749Z,83.51
2017-07-31T01:14:10.090Z,83.03
2017-07-31T01:16:38.426Z,84.20
2017-07-31T01:19:07.530Z,83.51
2017-07-31T01:21:35.893Z,83.27
2017-07-31T01:24:04.263Z,83.62
2017-07-31T01:26:32.583Z,83.54
2017-07-31T01:29:00.919Z,84.63
2017-07-31T01:31:29.227Z,85.07
2017-07-31T01:33:57.743Z,84.28
2017-07-31T01:36:26.067Z,84.12
2017-07-31T01:38:54.404Z,84.24
2017-07-31T01:41:23.160Z,84.68
2017-07-31T01:43:51.978Z,84.21
2017-07-31T01:46:20.298Z,85.02
2017-07-31T01:48:48.638Z,85.65
2017-07-31T01:51:17.026Z,85.70
2017-07-31T01:53:45.395Z,85.17
2017-07-31T01:56:13.758Z,84.73
2017-07-31T01:58:42.126Z,85.31
2017-07-31T02:01:12.623Z,85.69
2017-07-31T02:03:41.063Z,85.61
2017-07-31T02:06:09.417Z,86.27
2017-07-31T02:08:37.763Z,85.77
2017-07-31T02:11:06.099Z,84.89
2017-07-31T02:13:34.444Z,85.72
2017-07-31T02:16:02.841Z,85.74
2017-07-31T02:18:31.189Z,85.74
2017-07-31T02:20:59.526Z,85.12
2017-07-31T02:23:28.143Z,84.81
2017-07-31T02:25:56.486Z,84.50
2017-07-31T02:28:24.821Z,85.32
2017-07-31T02:30:53.180Z,86.20
2017-07-31T02:33:21.509Z,85.80
2017-07-31T02:35:49.875Z,85.41
2017-07-31T02:38:18.209Z,84.73
2017-07-31T02:40:46.814Z,85.78
2017-07-31T02:43:15.137Z,86.05
2017-07-31T02:45:43.469Z,86.05
2017-07-31T02:48:11.808Z,85.87
2017-07-31T02:50:40.126Z,85.43
2017-07-31T02:53:08.467Z,85.37
2017-07-31T02:55:36.786Z,85.58
2017-07-31T02:58:05.201Z,85.55
2017-07-31T03:00:33.649Z,85.07
2017-07-31T03:03:01.972Z,85.46
2017-07-31T03:05:30.322Z,86.00
2017-07-31T03:07:58.658Z,86.63
2017-07-31T03:10:26.985Z,86.57
2017-07-31T03:12:55.316Z,85.85
2017-07-31T03:15:23.939Z,85.45
2017-07-31T03:17:52.280Z,86.04
2017-07-31T03:20:20.613Z,85.33
2017-07-31T03:22:48.957Z,85.64
2017-07-31T03:25:17.287Z,85.72
2017-07-31T03:27:45.625Z,86.02
2017-07-31T03:30:13.961Z,85.46
2017-07-31T03:32:42.591Z,86.49
2017-07-31T03:35:10.912Z,85.92
2017-07-31T03:37:39.237Z,85.95
2017-07-31T03:40:07.595Z,85.67
2017-07-31T03:42:35.902Z,86.34
2017-07-31T03:45:04.289Z,86.34
2017-07-31T03:47:32.630Z,85.91
2017-07-31T03:50:00.957Z,85.81
2017-07-31T03:52:29.305Z,85.92
2017-07-31T03:54:57.656Z,86.42
2017-07-31T03:57:26.029Z,86.16
2017-07-31T03:59:54.351Z,86.21
2017-07-31T04:02:22.698Z,86.25
2017-07-31T04:04:51.019Z,86.27
2017-07-31T04:07:19.361Z,85.87
2017-07-31T04:09:47.694Z,85.12
2017-07-31T04:12:16.026Z,84.69
2017-07-31T04:14:44.362Z,85.19
2017-07-31T04:17:12.721Z,84.90
2017-07-31T04:19:41.069Z,84.57
2017-07-31T04:22:09.410Z,84.65
2017-07-31T04:24:37.754Z,84.49
2017-07-31T04:27:06.068Z,84.60
2017-07-31T04:29:34.404Z,85.44
2017-07-31T04:32:02.749Z,84.83
2017-07-31T04:34:31.189Z,85.42
2017-07-31T04:36:59.512Z,85.16
2017-07-31T04:39:27.850Z,85.05
2017-07-31T04:41:56.200Z,86.03
2017-07-31T04:44:24.537Z,86.31
2017-07-31T04:46:52.889Z,86.20
2017-07-31T04:49:21.219Z,86.15
2017-07-31T04:51:49.580Z,86.20
2017-07-31T04:54:17.898Z,86.50
2017-07-31T04:56:46.503Z,86.05
2017-07-31T04:59:14.820Z,85.57
2017-07-31T05:01:43.137Z,85.93
2017-07-31T05:04:11.477Z,86.13
2017-07-31T05:06:39.990Z,86.21
2017-07-31T05:09:08.344Z,85.95
2017-07-31T05:11:36.686Z,86.22
2017-07-31T05:14:05.019Z,85.82
2017-07-31T05:16:33.359Z,86.05
2017-07-31T05:19:01.727Z,86.10
2017-07-31T05:21:31.047Z,86.95
2017-07-31T05:23:59.390Z,86.39
2017-07-31T05:26:27.717Z,86.61
2017-07-31T05:28:56.064Z,86.40
2017-07-31T05:31:25.106Z,86.27
2017-07-31T05:33:53.424Z,86.29
2017-07-31T05:36:21.758Z,86.39
2017-07-31T05:38:50.094Z,86.56
2017-07-31T05:41:19.213Z,86.35
2017-07-31T05:43:47.530Z,86.09
2017-07-31T05:46:16.252Z,86.15
2017-07-31T05:48:44.594Z,85.55
2017-07-31T05:51:12.965Z,84.99
2017-07-31T05:53:41.406Z,84.51
2017-07-31T05:56:09.748Z,84.34
2017-07-31T05:58:38.091Z,83.82
2017-07-31T06:01:06.411Z,84.90
2017-07-31T06:03:34.748Z,84.83
2017-07-31T06:06:03.080Z,84.46
2017-07-31T06:08:31.451Z,83.81
2017-07-31T06:10:59.810Z,82.88
2017-07-31T06:13:28.138Z,82.60
2017-07-31T06:15:56.491Z,82.23
2017-07-31T06:18:24.823Z,82.14
2017-07-31T06:20:53.180Z,81.80
2017-07-31T06:23:22.293Z,81.63
2017-07-31T06:25:50.661Z,81.81
2017-07-31T06:28:19.003Z,81.64
2017-07-31T06:30:47.353Z,81.64
2017-07-31T06:33:15.677Z,80.93
2017-07-31T06:35:44.411Z,80.58
2017-07-31T06:38:12.761Z,80.62
2017-07-31T06:40:41.887Z,80.35
2017-07-31T06:43:10.232Z,79.74
2017-07-31T06:45:38.546Z,79.22
2017-07-31T06:48:06.927Z,79.06
2017-07-31T06:50:35.253Z,80.24
2017-07-31T06:53:03.621Z,80.16
2017-07-31T06:55:31.960Z,79.83
2017-07-31T06:58:00.316Z,78.84
2017-07-31T07:00:28.649Z,78.77
2017-07-31T07:02:56.995Z,78.05
2017-07-31T07:05:25.329Z,77.70
2017-07-31T07:07:53.683Z,77.75
2017-07-31T07:10:22.016Z,77.54
2017-07-31T07:12:50.356Z,77.56
2017-07-31T07:15:18.698Z,77.97
2017-07-31T07:17:47.022Z,78.29
2017-07-31T07:20:15.369Z,78.47
2017-07-31T07:22:43.734Z,78.87
2017-07-31T07:25:12.067Z,78.17
2017-07-31T07:27:40.396Z,77.23
2017-07-31T07:30:09.153Z,76.91
2017-07-31T07:32:37.493Z,76.91
2017-07-31T07:35:05.884Z,77.43
2017-07-31T07:37:34.220Z,77.41
2017-07-31T07:40:02.538Z,77.15
2017-07-31T07:42:30.888Z,77.01
2017-07-31T07:44:59.208Z,77.10
2017-07-31T07:47:27.556Z,77.08
2017-07-31T07:49:55.867Z,77.04
2017-07-31T07:52:24.198Z,77.02
2017-07-31T07:54:52.541Z,77.08
2017-07-31T07:57:20.955Z,77.08
2017-07-31T07:59:49.301Z,76.16
2017-07-31T08:02:18.438Z,75.11
2017-07-31T08:04:46.805Z,74.34
2017-07-31T08:07:15.129Z,74.80
2017-07-31T08:09:43.497Z,74.70
2017-07-31T08:12:11.832Z,74.60
2017-07-31T08:14:40.193Z,74.61
2017-07-31T08:17:09.285Z,73.24
2017-07-31T08:19:37.969Z,74.15
2017-07-31T08:22:06.292Z,73.93
2017-07-31T08:24:34.622Z,73.97
2017-07-31T08:27:03.721Z,73.21
2017-07-31T08:29:32.052Z,73.66
2017-07-31T08:32:00.415Z,73.01
2017-07-31T08:34:28.777Z,72.30
2017-07-31T08:36:57.114Z,72.24
2017-07-31T08:39:25.479Z,69.93
2017-07-31T08:41:53.814Z,70.29
2017-07-31T08:44:22.185Z,69.29
2017-07-31T08:46:50.543Z,68.50
2017-07-31T08:49:18.907Z,67.68
2017-07-31T08:51:47.290Z,67.13
2017-07-31T08:54:15.616Z,67.25
2017-07-31T08:56:43.960Z,68.46
2017-07-31T08:59:12.284Z,67.85
2017-07-31T09:01:40.645Z,67.77
2017-07-31T09:04:09.736Z,67.72
2017-07-31T09:06:38.079Z,66.48
2017-07-31T09:09:06.433Z,66.86
2017-07-31T09:11:34.769Z,66.44
2017-07-31T09:14:03.877Z,65.63
2017-07-31T09:16:32.212Z,64.42
2017-07-31T09:19:00.571Z,63.77
2017-07-31T09:21:28.908Z,62.14
2017-07-31T09:23:58.040Z,62.55
2017-07-31T09:26:26.696Z,63.43
2017-07-31T09:28:55.033Z,63.52
2017-07-31T09:31:23.375Z,63.18
2017-07-31T09:33:51.734Z,63.00
2017-07-31T09:36:20.851Z,63.25
2017-07-31T09:38:49.179Z,60.31
2017-07-31T09:41:17.904Z,59.35
2017-07-31T09:43:46.218Z,60.10
2017-07-31T09:46:14.558Z,60.37
2017-07-31T09:48:43.668Z,59.62
2017-07-31T09:51:12.011Z,59.28
2017-07-31T09:53:40.371Z,59.52
2017-07-31T09:56:08.695Z,59.80
2017-07-31T09:58:38.098Z,58.46
2017-07-31T10:01:06.423Z,59.78
2017-07-31T10:03:34.758Z,59.44
2017-07-31T10:06:03.876Z,60.10
2017-07-31T10:08:32.196Z,59.48
2017-07-31T10:11:00.551Z,58.16
2017-07-31T10:13:28.895Z,58.85
2017-07-31T10:15:57.289Z,59.21
2017-07-31T10:18:25.608Z,59.14
2017-07-31T10:20:53.963Z,59.47
2017-07-31T10:23:22.316Z,59.07
2017-07-31T10:25:50.692Z,59.06
2017-07-31T10:28:19.007Z,58.79
2017-07-31T10:30:47.658Z,57.94
2017-07-31T10:33:15.985Z,59.28
2017-07-31T10:35:44.314Z,58.62
2017-07-31T10:38:13.435Z,58.25
2017-07-31T10:40:41.766Z,57.62
2017-07-31T10:43:10.104Z,58.82
2017-07-31T10:45:38.448Z,59.78
2017-07-31T10:48:07.567Z,58.91
2017-07-31T10:50:35.921Z,57.63
2017-07-31T10:53:04.272Z,57.44
2017-07-31T10:55:32.631Z,56.66
2017-07-31T10:58:00.987Z,56.49
2017-07-31T11:00:29.337Z,56.50
2017-07-31T11:02:58.442Z,56.99
2017-07-31T11:05:27.134Z,55.58
2017-07-31T11:07:55.468Z,57.49
2017-07-31T11:10:23.800Z,56.18
2017-07-31T11:12:52.152Z,56.09
2017-07-31T11:15:21.252Z,55.68
2017-07-31T11:17:49.614Z,56.50
2017-07-31T11:20:17.957Z,57.17
2017-07-31T11:22:46.704Z,57.28
2017-07-31T11:25:15.133Z,56.52
2017-07-31T11:27:43.475Z,55.35
2017-07-31T11:30:11.824Z,55.92
2017-07-31T11:32:40.185Z,55.94
2017-07-31T11:35:08.541Z,57.55
2017-07-31T11:37:36.885Z,57.88
2017-07-31T11:40:05.992Z,56.63
2017-07-31T11:42:34.326Z,57.23
2017-07-31T11:45:02.757Z,57.20
2017-07-31T11:47:31.111Z,56.71
2017-07-31T11:49:59.444Z,56.44
2017-07-31T11:52:27.824Z,56.59
2017-07-31T11:54:56.160Z,56.99
2017-07-31T11:57:25.558Z,57.77
2017-07-31T11:59:54.805Z,57.06
2017-07-31T12:02:23.124Z,55.46
2017-07-31T12:04:51.460Z,55.90
2017-07-31T12:07:19.807Z,56.02
2017-07-31T12:09:48.156Z,55.93
2017-07-31T12:12:16.486Z,55.15
2017-07-31T12:14:44.911Z,56.28
2017-07-31T12:17:13.257Z,56.60
2017-07-31T12:19:41.904Z,56.47
2017-07-31T12:22:10.230Z,53.83
2017-07-31T12:24:38.579Z,54.02
2017-07-31T12:27:06.947Z,52.74
2017-07-31T12:29:36.050Z,53.37
2017-07-31T12:32:04.414Z,53.41
2017-07-31T12:34:32.816Z,53.50
2017-07-31T12:37:01.174Z,52.95
2017-07-31T12:39:29.513Z,52.79
2017-07-31T12:41:57.883Z,52.71
2017-07-31T12:44:26.218Z,53.43
2017-07-31T12:46:55.343Z,53.39
2017-07-31T12:49:23.679Z,52.72
2017-07-31T12:51:52.012Z,52.98
2017-07-31T12:54:20.345Z,52.64
2017-07-31T12:56:49.443Z,52.48
2017-07-31T12:59:17.814Z,52.30
2017-07-31T13:01:46.154Z,52.28
2017-07-31T13:04:14.901Z,51.97
2017-07-31T13:06:43.236Z,52.44
2017-07-31T13:09:11.567Z,53.00
2017-07-31T13:11:39.917Z,52.58
2017-07-31T13:14:09.085Z,52.87
2017-07-31T13:16:37.443Z,52.87
2017-07-31T13:19:05.786Z,53.21
2017-07-31T13:21:34.471Z,53.00
2017-07-31T13:24:02.795Z,52.84
2017-07-31T13:26:31.138Z,53.45
2017-07-31T13:29:00.251Z,53.38
2017-07-31T13:31:28.566Z,53.15
2017-07-31T13:33:56.912Z,51.99
2017-07-31T13:36:25.269Z,53.83
2017-07-31T13:38:54.421Z,51.99
2017-07-31T13:41:22.747Z,52.91
2017-07-31T13:43:51.117Z,54.03
2017-07-31T13:46:19.570Z,53.37
2017-07-31T13:48:47.905Z,52.61
2017-07-31T13:51:16.264Z,54.62
2017-07-31T13:53:44.591Z,54.16
2017-07-31T13:56:12.928Z,53.68
2017-07-31T13:58:42.053Z,54.73
2017-07-31T14:01:10.421Z,54.12
2017-07-31T14:03:38.750Z,53.92
2017-07-31T14:06:07.405Z,54.21
2017-07-31T14:08:35.747Z,56.06
2017-07-31T14:11:04.847Z,54.19
2017-07-31T14:13:33.207Z,54.25
2017-07-31T14:16:01.554Z,53.28
2017-07-31T14:18:29.903Z,52.68
2017-07-31T14:20:58.219Z,52.94
2017-07-31T14:23:26.963Z,53.48
2017-07-31T14:25:55.297Z,53.49
2017-07-31T14:28:24.031Z,53.61
2017-07-31T14:30:52.381Z,53.12
2017-07-31T14:33:20.730Z,53.67
2017-07-31T14:35:49.787Z,52.86
2017-07-31T14:38:18.121Z,53.78
2017-07-31T14:40:46.961Z,54.18
2017-07-31T14:43:15.283Z,53.87
2017-07-31T14:45:43.616Z,54.11
2017-07-31T14:48:11.959Z,54.37
2017-07-31T14:50:40.286Z,54.17
2017-07-31T14:53:09.077Z,53.89
2017-07-31T14:55:37.391Z,54.00
2017-07-31T14:58:06.467Z,54.57
2017-07-31T15:00:34.803Z,54.30
2017-07-31T15:03:04.209Z,54.89
2017-07-31T15:05:32.570Z,55.47
2017-07-31T15:08:00.985Z,55.30
2017-07-31T15:10:29.328Z,55.67
2017-07-31T15:12:57.662Z,56.27
2017-07-31T15:15:26.556Z,55.64
2017-07-31T15:17:54.877Z,54.43
2017-07-31T15:20:23.220Z,53.71
2017-07-31T15:22:51.576Z,53.13
2017-07-31T15:25:19.923Z,51.97
2017-07-31T15:27:48.295Z,51.07
2017-07-31T15:30:16.630Z,49.90
2017-07-31T15:32:45.378Z,49.91
2017-07-31T15:35:13.701Z,49.22
2017-07-31T15:37:42.032Z,49.14
2017-07-31T15:40:11.144Z,48.86
2017-07-31T15:42:39.482Z,48.42
2017-07-31T15:45:07.829Z,47.71
2017-07-31T15:47:36.195Z,48.18
2017-07-31T15:50:04.548Z,49.54
2017-07-31T15:52:33.644Z,49.33
2017-07-31T15:55:01.991Z,49.31
2017-07-31T15:57:30.315Z,49.54
2017-07-31T15:59:58.727Z,49.82
2017-07-31T16:02:27.073Z,51.17
2017-07-31T16:04:56.171Z,52.42
2017-07-31T16:07:24.548Z,54.58
2017-07-31T16:09:52.875Z,53.84
2017-07-31T16:12:21.241Z,55.04
2017-07-31T16:14:49.584Z,55.20
2017-07-31T16:17:17.918Z,55.87
2017-07-31T16:19:46.263Z,56.19
2017-07-31T16:22:14.713Z,56.76
2017-07-31T16:24:44.137Z,56.90
2017-07-31T16:27:12.465Z,57.20
2017-07-31T16:29:41.402Z,57.67
2017-07-31T16:32:10.518Z,57.41
2017-07-31T16:34:38.878Z,57.52
2017-07-31T16:37:25.380Z,58.06
2017-07-31T16:39:53.695Z,57.72
2017-07-31T16:42:49.475Z,58.08
2017-07-31T16:45:30.312Z,58.03
2017-07-31T16:51:04.053Z,58.34
2017-07-31T16:53:32.409Z,58.29
2017-07-31T16:56:03.628Z,58.32
2017-07-31T16:58:31.951Z,58.77
2017-07-31T17:01:00.313Z,58.70
2017-07-31T17:03:29.624Z,58.45
2017-07-31T17:05:57.990Z,58.28
2017-07-31T17:08:26.365Z,58.69
2017-07-31T17:10:54.680Z,59.49
2017-07-31T17:13:23.038Z,60.31
2017-07-31T17:15:51.360Z,59.82
2017-07-31T17:18:19.729Z,59.62
2017-07-31T17:20:48.115Z,59.10
2017-07-31T17:23:16.453Z,60.04
2017-07-31T17:25:44.818Z,60.60
2017-07-31T17:28:13.152Z,60.21
2017-07-31T17:30:41.851Z,60.46
2017-07-31T17:33:10.186Z,60.14
2017-07-31T17:35:38.514Z,60.69
2017-07-31T17:38:08.127Z,61.86
2017-07-31T17:40:36.479Z,62.62
2017-07-31T17:43:05.298Z,61.78
2017-07-31T17:45:33.648Z,62.39
2017-07-31T17:48:01.975Z,63.75
2017-07-31T17:50:30.335Z,64.42
2017-07-31T17:52:58.702Z,64.62
2017-07-31T17:55:27.817Z,65.12
2017-07-31T17:57:56.188Z,65.41
2017-07-31T18:05:18.135Z,66.04
2017-07-31T18:07:47.255Z,66.34
2017-07-31T18:10:15.684Z,66.36
2017-07-31T18:12:44.030Z,65.75
2017-07-31T18:15:12.394Z,66.20
2017-07-31T18:17:40.756Z,66.33
2017-07-31T18:20:09.098Z,69.45
2017-07-31T18:22:37.468Z,70.17
2017-07-31T18:25:05.811Z,70.28
2017-07-31T18:27:34.891Z,70.50
2017-07-31T18:30:03.246Z,70.81
2017-07-31T18:32:31.621Z,70.21
2017-07-31T18:34:59.989Z,71.62
2017-07-31T18:37:28.355Z,72.64
2017-07-31T18:39:56.751Z,71.87
2017-07-31T18:42:25.086Z,72.46
2017-07-31T18:44:53.433Z,71.64
2017-07-31T18:47:21.758Z,72.35
2017-07-31T18:49:50.113Z,72.31
2017-07-31T18:52:18.444Z,72.23
2017-07-31T18:54:46.817Z,72.14
2017-07-31T18:57:15.155Z,73.28
2017-07-31T18:59:43.788Z,73.70
2017-07-31T19:02:12.143Z,73.39
2017-07-31T19:04:40.483Z,73.46
2017-07-31T19:07:08.818Z,74.15
2017-07-31T19:09:37.141Z,74.04
2017-07-31T19:12:05.479Z,74.45
2017-07-31T19:14:33.847Z,74.58
2017-07-31T19:17:02.207Z,74.55
2017-07-31T19:19:30.549Z,73.55
2017-07-31T19:21:58.954Z,74.73
2017-07-31T19:24:27.408Z,74.77
2017-07-31T19:26:55.749Z,74.67
2017-07-31T19:29:24.100Z,74.90
